Time;durP1;ratioP1;P1;durP2;ratioP2;P2;SDS_P1;SDS_P2;PMS_P1;PMS_P2;Temp;Humidity;BMP_temperature;BMP_pressure;BME280_temperature;BME280_humidity;BME280_pressure;Samples;Min_cycle;Max_cycle;Signal;HPM_P1;HPM_P2
2022/10/22 00:00:13;;;;;;;10.15;5.22;;;;;;;22.78;43.86;99951.72;4453410;32;20101;-80
2022/10/22 00:02:38;;;;;;;7.93;5.07;;;;;;;22.76;43.69;99952.63;4439368;32;20164;-80
2022/10/22 00:05:05;;;;;;;7.35;5.25;;;;;;;22.76;43.87;99952.63;4454509;32;20470;-80
2022/10/22 00:07:30;;;;;;;7.60;5.40;;;;;;;22.75;43.77;99953.53;4455670;32;20084;-80
2022/10/22 00:09:56;;;;;;;6.40;5.00;;;;;;;22.74;43.80;99959.62;4455714;32;20127;-80
2022/10/22 00:12:21;;;;;;;6.93;4.68;;;;;;;22.73;43.86;99963.16;4454320;32;20150;-80
2022/10/22 00:14:47;;;;;;;9.98;4.93;;;;;;;22.72;43.70;99967.50;4455675;32;20077;-80
2022/10/22 00:17:13;;;;;;;8.80;5.20;;;;;;;22.71;43.78;99957.91;4455344;32;20450;-79
2022/10/22 00:19:39;;;;;;;8.05;5.05;;;;;;;22.71;43.78;99962.28;4446482;32;20105;-80
2022/10/22 00:22:05;;;;;;;10.60;5.28;;;;;;;22.72;43.75;99946.59;4441421;32;20128;-80
2022/10/22 00:24:32;;;;;;;7.57;4.87;;;;;;;22.73;43.74;99942.22;4455578;32;20153;-80
2022/10/22 00:26:57;;;;;;;10.13;5.60;;;;;;;22.71;43.67;99947.47;4464329;32;20144;-80
2022/10/22 00:29:23;;;;;;;7.72;4.90;;;;;;;22.69;43.76;99953.59;4471094;32;20100;-80
2022/10/22 00:31:49;;;;;;;8.23;4.85;;;;;;;22.68;43.68;99944.03;4470986;32;20114;-80
2022/10/22 00:34:20;;;;;;;7.57;5.22;;;;;;;22.68;43.74;99938.81;4471046;32;20088;-80
2022/10/22 00:36:46;;;;;;;10.25;5.30;;;;;;;22.66;43.66;99930.97;4470952;32;20223;-80
2022/10/22 00:39:15;;;;;;;7.62;4.90;;;;;;;22.66;43.72;99932.72;4470955;32;20139;-80
2022/10/22 00:41:41;;;;;;;11.30;5.47;;;;;;;22.64;43.83;99922.25;4470965;32;20120;-80
2022/10/22 00:44:07;;;;;;;6.82;5.07;;;;;;;22.65;43.75;99928.38;4470680;32;20092;-80
2022/10/22 00:46:32;;;;;;;6.97;5.05;;;;;;;22.65;43.65;99923.16;4470960;32;20144;-80
2022/10/22 00:48:59;;;;;;;8.95;4.80;;;;;;;22.63;43.79;99923.16;4470932;32;20106;-80
2022/10/22 00:51:28;;;;;;;8.10;4.55;;;;;;;22.63;43.73;99919.69;4456701;32;20566;-80
2022/10/22 00:54:02;;;;;;;8.75;4.90;;;;;;;22.62;43.76;99923.16;4470913;32;20096;-80
2022/10/22 00:56:28;;;;;;;6.18;4.37;;;;;;;22.62;43.85;99924.06;4470976;32;20085;-80
2022/10/22 00:58:56;;;;;;;7.22;4.82;;;;;;;22.62;43.56;99926.66;4470824;32;20554;-80
2022/10/22 01:01:23;;;;;;;9.30;4.72;;;;;;;;;;4443511;32;20487;-80
2022/10/22 01:03:49;;;;;;;7.30;4.70;;;;;;;22.59;43.61;99918.84;4470973;32;20154;-80
2022/10/22 01:06:33;;;;;;;8.95;4.80;;;;;;;22.58;43.58;99933.66;4456605;32;20141;-80
2022/10/22 01:09:03;;;;;;;5.50;4.18;;;;;;;22.55;43.64;99923.25;4470848;32;20092;-80
2022/10/22 01:11:49;;;;;;;6.90;4.32;;;;;;;22.55;43.68;99928.47;4470781;32;20160;-80
2022/10/22 01:14:37;;;;;;;7.70;4.53;;;;;;;22.56;43.60;99930.25;4470804;32;20403;-80
2022/10/22 01:17:17;;;;;;;7.93;4.70;;;;;;;22.56;43.70;99935.47;4470351;32;20111;-79
2022/10/22 01:19:51;;;;;;;7.85;4.53;;;;;;;22.56;43.67;99926.72;4456480;32;20088;-80
2022/10/22 01:22:38;;;;;;;7.15;4.80;;;;;;;22.55;43.55;99920.62;4470648;32;20550;-80
2022/10/22 01:25:29;;;;;;;6.97;4.72;;;;;;;22.55;43.68;99911.94;4456513;32;20482;-80
2022/10/22 01:28:13;;;;;;;6.68;4.78;;;;;;;22.55;43.70;99907.56;4453773;32;20562;-80
2022/10/22 01:30:39;;;;;;;8.02;5.00;;;;;;;22.54;43.47;99908.47;4455110;32;20080;-80
2022/10/22 01:33:08;;;;;;;7.10;4.82;;;;;;;22.54;43.51;99915.44;4440928;32;20417;-80
2022/10/22 01:35:36;;;;;;;9.35;4.75;;;;;;;22.52;43.64;99912.84;4453810;32;20156;-80
2022/10/22 01:38:12;;;;;;;6.82;4.85;;;;;;;22.52;43.68;99912.84;4440807;32;20107;-80
2022/10/22 01:40:38;;;;;;;8.15;4.70;;;;;;;22.52;43.65;99912.00;4440860;32;20148;-80
2022/10/22 01:43:05;;;;;;;7.72;4.65;;;;;;;22.52;43.57;99902.37;4440952;32;20086;-80
2022/10/22 01:45:44;;;;;;;5.90;4.37;;;;;;;22.52;43.71;99901.53;4453787;32;20542;-80
2022/10/22 01:48:34;;;;;;;6.22;4.45;;;;;;;22.50;43.71;99891.06;4440957;32;20146;-80
2022/10/22 01:51:21;;;;;;;9.38;4.50;;;;;;;22.51;43.52;99887.59;4454916;32;20156;-80
2022/10/22 01:53:49;;;;;;;7.80;4.22;;;;;;;22.49;43.52;99878.91;4454953;32;20093;-80
2022/10/22 01:56:35;;;;;;;6.05;4.40;;;;;;;22.47;43.61;99862.38;4455016;32;20123;-80
2022/10/22 01:59:14;;;;;;;6.50;4.32;;;;;;;22.48;43.58;99863.22;4454927;32;20077;-80
2022/10/22 02:01:53;;;;;;;5.65;4.20;;;;;;;22.49;43.54;99870.22;4454892;32;20218;-80
2022/10/22 02:04:26;;;;;;;5.20;4.15;;;;;;;22.48;43.47;99873.69;4454893;32;20089;-80
2022/10/22 02:06:55;;;;;;;9.15;4.80;;;;;;;22.47;43.38;99877.19;4453718;32;20092;-80
2022/10/22 02:09:22;;;;;;;7.53;5.03;;;;;;;22.48;43.50;99876.31;4440704;32;20100;-80
2022/10/22 02:11:48;;;;;;;7.28;4.60;;;;;;;22.46;43.38;99881.56;4448394;32;20211;-80
2022/10/22 02:14:15;;;;;;;5.97;4.37;;;;;;;22.45;43.42;99878.97;4453562;32;20105;-80
2022/10/22 02:16:44;;;;;;;7.95;4.43;;;;;;;22.44;43.48;99872.88;4453631;32;20521;-80
2022/10/22 02:19:27;;;;;;;7.10;4.57;;;;;;;22.45;43.49;99869.34;4460389;32;20167;-80
2022/10/22 02:21:53;;;;;;;6.53;4.28;;;;;;;22.44;43.37;99867.66;4456162;32;20085;-80
2022/10/22 02:24:19;;;;;;;6.45;4.72;;;;;;;22.47;43.37;99866.75;4470374;32;20491;-80
2022/10/22 02:26:57;;;;;;;5.93;4.50;;;;;;;22.45;43.32;99873.72;4446642;32;20113;-80
2022/10/22 02:29:48;;;;;;;6.22;4.10;;;;;;;22.43;43.41;99873.72;4454703;32;20111;-80
2022/10/22 02:32:17;;;;;;;6.50;4.07;;;;;;;22.41;43.34;99870.31;4454744;32;20112;-80
2022/10/22 02:34:44;;;;;;;6.40;4.50;;;;;;;22.42;43.43;99858.94;4440528;32;20128;-80
2022/10/22 02:37:10;;;;;;;7.53;4.30;;;;;;;22.41;43.37;99864.19;4440555;32;20102;-80
2022/10/22 02:39:36;;;;;;;5.20;3.78;;;;;;;22.38;43.39;99862.50;4440607;32;20816;-80
2022/10/22 02:42:02;;;;;;;7.05;4.20;;;;;;;22.39;43.42;99863.37;4440576;32;20115;-80
2022/10/22 02:44:27;;;;;;;7.53;4.20;;;;;;;22.36;43.42;99856.44;4440691;32;20145;-80
2022/10/22 02:46:53;;;;;;;6.75;4.18;;;;;;;22.38;43.37;99854.66;4454794;32;20089;-80
2022/10/22 02:49:18;;;;;;;7.03;4.12;;;;;;;22.37;43.25;99858.13;4440654;32;20138;-80
2022/10/22 02:51:44;;;;;;;5.78;4.05;;;;;;;22.37;43.36;99879.06;4440628;32;20140;-80
2022/10/22 02:54:10;;;;;;;6.45;4.35;;;;;;;22.36;43.30;99874.72;4454660;32;20088;-80
2022/10/22 02:56:35;;;;;;;6.60;4.25;;;;;;;22.38;43.17;99885.13;4440542;32;20481;-80
2022/10/22 02:59:01;;;;;;;6.03;4.00;;;;;;;22.38;43.24;99898.19;4454521;32;20360;-80
2022/10/22 03:01:26;;;;;;;6.85;4.15;;;;;;;22.36;43.24;99898.25;4454201;32;20089;-80
2022/10/22 03:03:51;;;;;;;5.20;3.75;;;;;;;22.35;43.23;99893.87;4451486;32;20097;-80
2022/10/22 03:06:17;;;;;;;5.05;4.35;;;;;;;22.33;43.32;99895.66;4455634;32;20101;-80
2022/10/22 03:08:43;;;;;;;6.57;4.15;;;;;;;22.33;43.19;99906.97;4468571;32;20447;-80
2022/10/22 03:11:08;;;;;;;5.22;4.07;;;;;;;22.34;43.31;99915.69;4469770;32;20114;-80
2022/10/22 03:13:34;;;;;;;4.53;3.65;;;;;;;22.33;43.23;99922.66;4468547;32;20092;-80
2022/10/22 03:15:59;;;;;;;5.43;4.05;;;;;;;22.32;43.18;99922.66;4469748;32;20119;-80
2022/10/22 03:18:25;;;;;;;7.70;4.20;;;;;;;22.32;43.11;99922.66;4455218;32;20218;-79
2022/10/22 03:21:00;;;;;;;7.05;4.10;;;;;;;22.32;43.24;99920.06;4455556;32;20111;-80
2022/10/22 03:23:25;;;;;;;6.85;4.00;;;;;;;22.30;43.17;99919.19;4469569;32;20755;-80
2022/10/22 03:25:51;;;;;;;7.28;4.10;;;;;;;22.30;43.20;99922.69;4466481;32;20085;-80
2022/10/22 03:28:17;;;;;;;7.50;4.47;;;;;;;22.30;43.06;99912.25;4454116;32;20120;-80
2022/10/22 03:30:43;;;;;;;6.72;3.97;;;;;;;22.30;43.09;99903.53;4439894;32;20527;-80
2022/10/22 03:33:08;;;;;;;6.87;3.92;;;;;;;22.29;43.13;99894.81;4461802;32;20089;-80
2022/10/22 03:35:39;;;;;;;5.28;3.67;;;;;;;22.28;43.19;99887.88;4452690;32;20098;-80
2022/10/22 03:38:05;;;;;;;7.03;4.35;;;;;;;22.27;43.14;99874.81;4439715;32;20105;-80
2022/10/22 03:40:30;;;;;;;4.57;3.95;;;;;;;22.26;43.06;99880.94;4453224;32;20092;-80
2022/10/22 03:42:57;;;;;;;6.90;3.80;;;;;;;22.26;43.04;99883.56;4456989;32;20364;-80
2022/10/22 03:45:23;;;;;;;7.78;4.30;;;;;;;22.26;43.14;99873.09;4471502;32;20896;-80
2022/10/22 03:47:48;;;;;;;7.15;3.87;;;;;;;22.24;43.09;99862.66;4457201;32;20081;-80
2022/10/22 03:50:14;;;;;;;5.85;4.25;;;;;;;22.23;43.09;99860.06;4471242;32;20144;-80
2022/10/22 03:52:39;;;;;;;6.20;4.35;;;;;;;22.24;43.10;99864.41;4457207;32;20395;-80
2022/10/22 03:55:06;;;;;;;7.30;3.90;;;;;;;22.22;43.13;99854.00;4457156;32;20129;-80
2022/10/22 03:57:31;;;;;;;5.40;3.72;;;;;;;22.23;43.08;99858.31;4471077;32;20108;-80
2022/10/22 03:59:57;;;;;;;6.85;4.15;;;;;;;22.24;43.18;99860.03;4471304;32;20092;-80
2022/10/22 04:02:23;;;;;;;9.77;4.12;;;;;;;22.23;43.08;99873.13;4471256;32;20162;-80
2022/10/22 04:04:48;;;;;;;5.28;3.90;;;;;;;22.23;43.05;99873.13;4455957;32;20157;-81
2022/10/22 04:07:14;;;;;;;5.60;3.78;;;;;;;22.22;43.09;99872.28;4457384;32;20100;-80
2022/10/22 04:09:39;;;;;;;6.70;4.07;;;;;;;22.22;43.38;99868.78;4471198;32;20073;-78
2022/10/22 04:12:06;;;;;;;5.90;3.75;;;;;;;22.24;43.42;99872.25;4471268;32;20189;-79
2022/10/22 04:14:32;;;;;;;7.60;4.50;;;;;;;22.23;43.53;99863.53;4472401;32;20105;-78
2022/10/22 04:16:58;;;;;;;10.00;5.93;;;;;;;22.20;43.83;99865.34;4470967;32;20096;-77
2022/10/22 04:19:23;;;;;;;7.50;4.95;;;;;;;22.23;42.55;99862.69;4456717;32;20110;-79
2022/10/22 04:21:49;;;;;;;10.15;5.25;;;;;;;22.25;43.64;99859.19;4471111;32;20112;-77
2022/10/22 04:24:14;;;;;;;10.07;4.30;;;;;;;22.25;43.70;99861.78;4471133;32;20396;-77
2022/10/22 04:26:40;;;;;;;9.68;5.28;;;;;;;22.25;43.47;99861.78;4462657;32;20081;-77
2022/10/22 04:29:06;;;;;;;8.90;4.22;;;;;;;22.25;43.82;99858.28;4455144;32;20337;-77
2022/10/22 04:31:32;;;;;;;6.90;4.50;;;;;;;22.26;43.85;99854.81;4441329;32;20550;-77
2022/10/22 04:33:59;;;;;;;9.55;4.32;;;;;;;22.27;43.76;99854.78;4455157;32;20097;-77
2022/10/22 04:36:25;;;;;;;7.65;4.68;;;;;;;22.27;43.83;99860.00;4470673;32;20439;-77
2022/10/22 04:38:56;;;;;;;8.13;4.32;;;;;;;22.27;43.84;99861.75;4470902;32;20107;-77
2022/10/22 04:41:24;;;;;;;7.03;4.43;;;;;;;22.29;43.76;99868.69;4456826;32;20113;-78
2022/10/22 04:43:50;;;;;;;7.32;4.43;;;;;;;22.29;43.75;99867.84;4470958;32;20092;-77
2022/10/22 04:46:16;;;;;;;5.45;4.00;;;;;;;22.30;43.71;99866.94;4469712;32;20081;-77
2022/10/22 04:48:46;;;;;;;5.95;4.37;;;;;;;22.28;43.71;99866.97;4456061;32;20152;-77
2022/10/22 04:51:15;;;;;;;9.85;4.57;;;;;;;22.29;43.77;99876.53;4454200;32;20093;-78
2022/10/22 04:53:41;;;;;;;7.22;4.57;;;;;;;22.26;43.80;99868.72;4470831;32;20550;-78
2022/10/22 04:56:15;;;;;;;8.35;4.65;;;;;;;22.24;43.87;99870.50;4456943;32;20092;-78
2022/10/22 04:58:42;;;;;;;8.27;4.40;;;;;;;22.26;43.75;99870.47;4470843;32;20084;-78
2022/10/22 05:01:15;;;;;;;6.85;4.05;;;;;;;22.25;43.68;99858.28;4470955;32;20454;-78
2022/10/22 05:03:42;;;;;;;8.10;4.65;;;;;;;22.24;43.82;99854.81;4456700;32;20403;-77
2022/10/22 05:06:08;;;;;;;7.68;4.62;;;;;;;22.25;43.72;99853.94;4456594;32;20089;-78
2022/10/22 05:08:33;;;;;;;6.57;3.95;;;;;;;22.24;43.70;99857.44;4470826;32;20345;-77
2022/10/22 05:10:59;;;;;;;11.70;4.12;;;;;;;22.23;43.67;99857.47;4456554;32;20109;-77
2022/10/22 05:13:25;;;;;;;8.80;4.45;;;;;;;22.22;43.59;99853.09;4469627;32;20142;-77
2022/10/22 05:15:50;;;;;;;7.43;4.20;;;;;;;22.20;43.66;99845.31;4450248;32;20439;-78
2022/10/22 05:18:16;;;;;;;6.68;4.40;;;;;;;22.22;43.74;99840.03;4470063;32;20081;-77
2022/10/22 05:20:42;;;;;;;7.55;4.85;;;;;;;22.19;43.63;99838.31;4456500;32;20104;-77
2022/10/22 05:23:08;;;;;;;6.93;4.10;;;;;;;22.19;43.70;99845.31;4446669;32;20349;-77
2022/10/22 05:25:39;;;;;;;7.47;4.60;;;;;;;22.18;43.64;99835.72;4441970;32;20093;-78
2022/10/22 05:28:05;;;;;;;6.40;3.90;;;;;;;22.20;43.74;99834.00;4456231;32;20085;-77
2022/10/22 05:30:30;;;;;;;7.75;4.40;;;;;;;22.18;43.65;99848.78;4453765;32;20131;-77
2022/10/22 05:32:56;;;;;;;7.72;4.18;;;;;;;22.17;43.57;99853.16;4455248;32;20436;-78
2022/10/22 05:35:22;;;;;;;5.22;4.03;;;;;;;22.17;43.57;99861.00;4455228;32;20107;-77
2022/10/22 05:37:47;;;;;;;5.85;4.05;;;;;;;22.16;43.38;99856.63;4455089;32;20085;-78
2022/10/22 05:40:13;;;;;;;7.90;4.30;;;;;;;22.17;43.51;99855.75;4467555;32;20119;-77
2022/10/22 05:42:38;;;;;;;7.25;4.07;;;;;;;22.16;43.50;99861.00;4456642;32;20141;-78
2022/10/22 05:45:04;;;;;;;9.32;4.15;;;;;;;22.16;43.45;99876.66;4456629;32;20072;-78
2022/10/22 05:47:30;;;;;;;7.18;3.95;;;;;;;22.14;43.46;99885.41;4470830;32;20104;-78
2022/10/22 05:49:56;;;;;;;8.75;4.37;;;;;;;22.12;43.45;99889.78;4470708;32;20097;-77
2022/10/22 05:52:22;;;;;;;7.28;3.72;;;;;;;22.13;43.34;99894.09;4470793;32;20092;-78
2022/10/22 05:54:48;;;;;;;7.72;4.40;;;;;;;22.12;43.33;99902.84;4470865;32;20574;-78
2022/10/22 05:57:14;;;;;;;8.23;4.10;;;;;;;22.11;43.35;99901.09;4470432;32;20085;-77
2022/10/22 05:59:39;;;;;;;7.37;4.37;;;;;;;22.12;43.36;99891.53;4453462;32;20109;-77
2022/10/22 06:02:05;;;;;;;5.25;3.85;;;;;;;22.10;43.30;99891.53;4469309;32;20112;-78
2022/10/22 06:04:31;;;;;;;6.80;4.05;;;;;;;22.11;43.33;99885.41;4470427;32;20452;-78
2022/10/22 06:06:57;;;;;;;7.57;4.45;;;;;;;22.11;43.40;99892.38;4470683;32;20084;-78
2022/10/22 06:09:25;;;;;;;7.00;4.12;;;;;;;22.11;43.24;99895.00;4470608;32;20089;-78
2022/10/22 06:11:51;;;;;;;6.45;4.40;;;;;;;22.11;43.33;99900.22;4446807;32;20705;-78
2022/10/22 06:14:24;;;;;;;5.32;4.00;;;;;;;22.09;43.41;99896.75;4461976;32;20175;-78
2022/10/22 06:16:50;;;;;;;5.47;3.70;;;;;;;22.09;43.33;99908.09;4456571;32;20403;-78
2022/10/22 06:19:19;;;;;;;7.45;4.05;;;;;;;22.11;43.43;99910.66;4457477;32;20578;-77
2022/10/22 06:21:46;;;;;;;6.85;4.18;;;;;;;22.10;43.27;99920.25;4446868;32;20096;-77
2022/10/22 06:24:15;;;;;;;8.90;4.50;;;;;;;22.10;43.22;99912.44;4447743;32;20085;-78
2022/10/22 06:26:42;;;;;;;5.95;3.75;;;;;;;22.10;43.36;99914.19;4449162;32;20108;-78
2022/10/22 06:29:08;;;;;;;5.53;3.87;;;;;;;22.09;43.26;99913.31;4433467;32;20814;-78
2022/10/22 06:31:38;;;;;;;8.35;3.78;;;;;;;22.08;43.28;99908.97;4460112;32;20104;-78
2022/10/22 06:34:18;;;;;;;5.78;3.75;;;;;;;22.08;43.33;99913.31;4447404;32;20123;-78
2022/10/22 06:36:45;;;;;;;6.62;3.72;;;;;;;22.08;43.35;99914.19;4460887;32;20085;-77
2022/10/22 06:39:12;;;;;;;7.43;3.83;;;;;;;22.07;43.29;99915.06;4446206;32;20101;-78
2022/10/22 06:41:38;;;;;;;5.22;3.40;;;;;;;22.09;43.56;99913.31;4460295;32;20127;-78
2022/10/22 06:44:04;;;;;;;6.55;3.95;;;;;;;22.08;43.41;99908.09;4463342;32;20443;-78
2022/10/22 06:46:30;;;;;;;6.07;3.90;;;;;;;22.07;43.35;99904.63;4462591;32;20138;-79
2022/10/22 06:49:00;;;;;;;13.85;4.00;;;;;;;22.07;43.42;99899.41;4463828;32;20089;-78
2022/10/22 06:51:26;;;;;;;8.70;4.32;;;;;;;22.08;43.62;99898.50;4461098;32;20119;-78
2022/10/22 06:53:53;;;;;;;5.43;3.70;;;;;;;22.08;43.59;99908.97;4444842;32;20164;-78
2022/10/22 06:56:21;;;;;;;10.25;4.10;;;;;;;22.08;43.54;99906.34;4465120;32;20085;-78
2022/10/22 06:58:48;;;;;;;9.57;3.72;;;;;;;22.09;43.46;99913.31;4455057;32;20482;-78
2022/10/22 07:01:15;;;;;;;6.65;3.80;;;;;;;22.09;43.84;99908.09;4467513;32;20544;-77
2022/10/22 07:03:41;;;;;;;10.10;3.40;;;;;;;22.10;43.88;99903.72;4454850;32;20683;-77
2022/10/22 07:06:11;;;;;;;7.93;3.83;;;;;;;22.10;43.52;99908.94;4460044;32;20116;-77
2022/10/22 07:08:38;;;;;;;10.88;4.00;;;;;;;22.09;43.74;99915.94;4461407;32;20141;-77
2022/10/22 07:11:09;;;;;;;5.20;3.40;;;;;;;22.10;43.75;99917.66;4445827;32;20418;-77
2022/10/22 07:13:35;;;;;;;8.75;4.03;;;;;;;22.10;43.82;99925.50;4463136;32;20237;-78
2022/10/22 07:16:01;;;;;;;7.32;3.95;;;;;;;22.12;43.64;99917.66;4458452;32;20399;-77
2022/10/22 07:18:27;;;;;;;5.00;3.95;;;;;;;22.11;43.96;99919.38;4449324;32;20123;-77
2022/10/22 07:20:53;;;;;;;7.18;3.65;;;;;;;22.11;43.80;99916.75;4462041;32;20168;-77
2022/10/22 07:23:18;;;;;;;5.05;3.58;;;;;;;22.11;43.96;99916.75;4461370;32;20707;-78
2022/10/22 07:25:45;;;;;;;7.20;3.78;;;;;;;22.12;43.97;99905.44;4461483;32;20152;-78
2022/10/22 07:28:10;;;;;;;8.68;3.70;;;;;;;22.11;44.07;99921.12;4446527;32;20147;-77
2022/10/22 07:30:37;;;;;;;6.35;3.97;;;;;;;22.12;43.76;99928.09;4447014;32;20127;-78
2022/10/22 07:33:03;;;;;;;11.75;4.55;;;;;;;22.14;43.77;99915.84;4437669;32;20559;-78
2022/10/22 07:35:29;;;;;;;9.43;4.45;;;;;;;22.17;43.73;99920.19;4438778;32;20112;-76
2022/10/22 07:37:55;;;;;;;14.82;4.93;;;;;;;22.19;43.70;99924.53;4448734;32;20417;-76
2022/10/22 07:40:21;;;;;;;5.35;3.72;;;;;;;22.22;43.69;99919.31;4446267;32;20547;-78
2022/10/22 07:42:47;;;;;;;12.55;4.35;;;;;;;22.25;43.61;99914.06;4443528;32;20086;-78
2022/10/22 07:45:12;;;;;;;5.93;4.10;;;;;;;22.26;43.62;99905.31;4444625;32;20384;-79
2022/10/22 07:47:38;;;;;;;8.15;4.20;;;;;;;22.28;43.62;99892.25;4444297;32;20109;-78
2022/10/22 07:50:06;;;;;;;12.32;4.50;;;;;;;22.29;43.65;99894.81;4443452;32;20161;-78
2022/10/22 07:52:31;;;;;;;7.95;4.15;;;;;;;22.30;43.55;99885.22;4445115;32;20194;-77
